sensor_id;sensor_type;location;lat;lon;timestamp;temperature;humidity
12977;DHT22;6553;48.412;9.514;2022-08-20T00:00:46;23.50;70.50
12977;DHT22;6553;48.412;9.514;2022-08-20T00:03:21;23.50;70.60
12977;DHT22;6553;48.412;9.514;2022-08-20T00:05:56;23.50;70.60
12977;DHT22;6553;48.412;9.514;2022-08-20T00:08:25;23.50;70.50
12977;DHT22;6553;48.412;9.514;2022-08-20T00:10:52;23.50;70.50
12977;DHT22;6553;48.412;9.514;2022-08-20T00:13:26;23.50;70.50
12977;DHT22;6553;48.412;9.514;2022-08-20T00:15:57;23.50;70.50
12977;DHT22;6553;48.412;9.514;2022-08-20T00:18:24;23.60;70.60
12977;DHT22;6553;48.412;9.514;2022-08-20T00:20:52;23.50;70.50
12977;DHT22;6553;48.412;9.514;2022-08-20T00:23:20;23.50;70.60
12977;DHT22;6553;48.412;9.514;2022-08-20T00:25:47;23.50;70.60
12977;DHT22;6553;48.412;9.514;2022-08-20T00:28:14;23.50;70.60
12977;DHT22;6553;48.412;9.514;2022-08-20T00:30:42;23.50;70.60
12977;DHT22;6553;48.412;9.514;2022-08-20T00:33:14;23.50;70.50
12977;DHT22;6553;48.412;9.514;2022-08-20T00:35:48;23.50;70.50
12977;DHT22;6553;48.412;9.514;2022-08-20T00:38:16;23.50;70.50
12977;DHT22;6553;48.412;9.514;2022-08-20T00:40:55;23.50;70.50
12977;DHT22;6553;48.412;9.514;2022-08-20T00:43:30;23.50;70.50
12977;DHT22;6553;48.412;9.514;2022-08-20T00:46:06;23.50;70.50
12977;DHT22;6553;48.412;9.514;2022-08-20T00:48:36;23.50;70.50
12977;DHT22;6553;48.412;9.514;2022-08-20T00:53:55;23.50;70.50
12977;DHT22;6553;48.412;9.514;2022-08-20T00:56:29;23.50;70.60
12977;DHT22;6553;48.412;9.514;2022-08-20T00:58:58;23.50;70.40
12977;DHT22;6553;48.412;9.514;2022-08-20T01:01:25;23.50;70.50
12977;DHT22;6553;48.412;9.514;2022-08-20T01:03:51;23.50;70.50
12977;DHT22;6553;48.412;9.514;2022-08-20T01:06:22;23.50;70.60
12977;DHT22;6553;48.412;9.514;2022-08-20T01:08:49;23.50;70.50
12977;DHT22;6553;48.412;9.514;2022-08-20T01:11:15;23.50;70.50
12977;DHT22;6553;48.412;9.514;2022-08-20T01:13:44;23.50;70.50
12977;DHT22;6553;48.412;9.514;2022-08-20T01:16:25;23.50;70.40
12977;DHT22;6553;48.412;9.514;2022-08-20T01:18:55;23.50;70.40
12977;DHT22;6553;48.412;9.514;2022-08-20T01:21:24;23.50;70.40
12977;DHT22;6553;48.412;9.514;2022-08-20T01:24:02;23.50;70.40
12977;DHT22;6553;48.412;9.514;2022-08-20T01:26:39;23.40;70.50
12977;DHT22;6553;48.412;9.514;2022-08-20T01:29:15;23.50;70.40
12977;DHT22;6553;48.412;9.514;2022-08-20T01:31:43;23.40;70.30
12977;DHT22;6553;48.412;9.514;2022-08-20T01:34:14;23.40;70.30
12977;DHT22;6553;48.412;9.514;2022-08-20T01:36:50;23.40;70.30
12977;DHT22;6553;48.412;9.514;2022-08-20T01:39:25;23.40;70.20
12977;DHT22;6553;48.412;9.514;2022-08-20T01:42:04;23.50;70.30
12977;DHT22;6553;48.412;9.514;2022-08-20T01:44:49;23.50;70.40
12977;DHT22;6553;48.412;9.514;2022-08-20T01:47:25;23.40;70.30
12977;DHT22;6553;48.412;9.514;2022-08-20T01:49:58;23.50;70.50
12977;DHT22;6553;48.412;9.514;2022-08-20T01:52:35;23.40;70.30
12977;DHT22;6553;48.412;9.514;2022-08-20T01:55:08;23.50;70.30
12977;DHT22;6553;48.412;9.514;2022-08-20T01:57:37;23.50;70.30
12977;DHT22;6553;48.412;9.514;2022-08-20T02:00:10;23.40;70.10
12977;DHT22;6553;48.412;9.514;2022-08-20T02:02:40;23.50;70.30
12977;DHT22;6553;48.412;9.514;2022-08-20T02:05:06;23.40;70.20
12977;DHT22;6553;48.412;9.514;2022-08-20T02:07:33;23.40;70.20
12977;DHT22;6553;48.412;9.514;2022-08-20T02:10:00;23.40;70.10
12977;DHT22;6553;48.412;9.514;2022-08-20T02:12:26;23.40;70.20
12977;DHT22;6553;48.412;9.514;2022-08-20T02:14:53;23.40;70.10
12977;DHT22;6553;48.412;9.514;2022-08-20T02:17:21;23.50;70.20
12977;DHT22;6553;48.412;9.514;2022-08-20T02:19:52;23.40;70.10
12977;DHT22;6553;48.412;9.514;2022-08-20T02:24:53;23.40;70.10
12977;DHT22;6553;48.412;9.514;2022-08-20T02:27:19;23.40;70.10
12977;DHT22;6553;48.412;9.514;2022-08-20T02:29:48;23.40;70.10
12977;DHT22;6553;48.412;9.514;2022-08-20T02:32:14;23.40;70.00
12977;DHT22;6553;48.412;9.514;2022-08-20T02:34:40;23.40;70.00
12977;DHT22;6553;48.412;9.514;2022-08-20T02:37:06;23.40;70.00
12977;DHT22;6553;48.412;9.514;2022-08-20T02:39:33;23.40;70.10
12977;DHT22;6553;48.412;9.514;2022-08-20T02:41:58;23.40;70.10
12977;DHT22;6553;48.412;9.514;2022-08-20T02:44:26;23.40;70.10
12977;DHT22;6553;48.412;9.514;2022-08-20T02:46:51;23.40;70.00
12977;DHT22;6553;48.412;9.514;2022-08-20T02:49:18;23.40;70.00
12977;DHT22;6553;48.412;9.514;2022-08-20T02:51:45;23.40;70.00
12977;DHT22;6553;48.412;9.514;2022-08-20T02:54:12;23.40;70.00
12977;DHT22;6553;48.412;9.514;2022-08-20T02:56:39;23.40;70.00
12977;DHT22;6553;48.412;9.514;2022-08-20T02:59:06;23.40;70.00
12977;DHT22;6553;48.412;9.514;2022-08-20T03:01:32;23.40;70.00
12977;DHT22;6553;48.412;9.514;2022-08-20T03:03:58;23.40;70.00
12977;DHT22;6553;48.412;9.514;2022-08-20T03:06:25;23.40;70.00
12977;DHT22;6553;48.412;9.514;2022-08-20T03:08:52;23.40;70.00
12977;DHT22;6553;48.412;9.514;2022-08-20T03:11:18;23.40;69.90
12977;DHT22;6553;48.412;9.514;2022-08-20T03:13:45;23.40;69.90
12977;DHT22;6553;48.412;9.514;2022-08-20T03:16:12;23.40;69.90
12977;DHT22;6553;48.412;9.514;2022-08-20T03:18:43;23.40;69.90
12977;DHT22;6553;48.412;9.514;2022-08-20T03:21:11;23.40;69.90
12977;DHT22;6553;48.412;9.514;2022-08-20T03:23:38;23.40;69.90
12977;DHT22;6553;48.412;9.514;2022-08-20T03:26:07;23.40;69.80
12977;DHT22;6553;48.412;9.514;2022-08-20T03:28:35;23.40;69.90
12977;DHT22;6553;48.412;9.514;2022-08-20T03:31:02;23.40;69.90
12977;DHT22;6553;48.412;9.514;2022-08-20T03:33:28;23.40;69.90
12977;DHT22;6553;48.412;9.514;2022-08-20T03:35:56;23.40;69.80
12977;DHT22;6553;48.412;9.514;2022-08-20T03:38:23;23.40;69.80
12977;DHT22;6553;48.412;9.514;2022-08-20T03:40:50;23.40;69.80
12977;DHT22;6553;48.412;9.514;2022-08-20T03:43:16;23.40;69.80
12977;DHT22;6553;48.412;9.514;2022-08-20T03:45:43;23.40;69.80
12977;DHT22;6553;48.412;9.514;2022-08-20T03:48:16;23.40;69.80
12977;DHT22;6553;48.412;9.514;2022-08-20T03:50:43;23.40;69.80
12977;DHT22;6553;48.412;9.514;2022-08-20T03:53:12;23.40;69.80
12977;DHT22;6553;48.412;9.514;2022-08-20T03:55:40;23.40;69.70
12977;DHT22;6553;48.412;9.514;2022-08-20T03:58:08;23.40;69.80
12977;DHT22;6553;48.412;9.514;2022-08-20T04:00:39;23.40;69.80
12977;DHT22;6553;48.412;9.514;2022-08-20T04:03:08;23.30;69.60
12977;DHT22;6553;48.412;9.514;2022-08-20T04:05:36;23.30;69.60
12977;DHT22;6553;48.412;9.514;2022-08-20T04:08:10;23.40;69.70
12977;DHT22;6553;48.412;9.514;2022-08-20T04:10:49;23.40;69.70
12977;DHT22;6553;48.412;9.514;2022-08-20T04:13:17;23.40;69.70
12977;DHT22;6553;48.412;9.514;2022-08-20T04:15:45;23.30;69.60
12977;DHT22;6553;48.412;9.514;2022-08-20T04:18:13;23.40;69.70
12977;DHT22;6553;48.412;9.514;2022-08-20T04:20:45;23.40;69.70
12977;DHT22;6553;48.412;9.514;2022-08-20T04:23:11;23.30;69.50
12977;DHT22;6553;48.412;9.514;2022-08-20T04:25:40;23.30;69.50
12977;DHT22;6553;48.412;9.514;2022-08-20T04:28:11;23.30;69.50
12977;DHT22;6553;48.412;9.514;2022-08-20T04:30:40;23.30;69.50
12977;DHT22;6553;48.412;9.514;2022-08-20T04:33:07;23.30;69.40
12977;DHT22;6553;48.412;9.514;2022-08-20T04:35:35;23.30;69.50
12977;DHT22;6553;48.412;9.514;2022-08-20T04:38:07;23.30;69.40
12977;DHT22;6553;48.412;9.514;2022-08-20T04:40:35;23.30;69.50
12977;DHT22;6553;48.412;9.514;2022-08-20T04:43:25;23.30;69.40
12977;DHT22;6553;48.412;9.514;2022-08-20T04:45:56;23.30;69.50
12977;DHT22;6553;48.412;9.514;2022-08-20T04:48:24;23.30;69.40
12977;DHT22;6553;48.412;9.514;2022-08-20T04:50:53;23.30;69.50
12977;DHT22;6553;48.412;9.514;2022-08-20T04:53:22;23.30;69.40
12977;DHT22;6553;48.412;9.514;2022-08-20T04:55:52;23.30;69.50
12977;DHT22;6553;48.412;9.514;2022-08-20T04:58:26;23.30;69.40
12977;DHT22;6553;48.412;9.514;2022-08-20T05:00:59;23.30;69.40
12977;DHT22;6553;48.412;9.514;2022-08-20T05:03:31;23.30;69.50
12977;DHT22;6553;48.412;9.514;2022-08-20T05:05:58;23.30;69.40
12977;DHT22;6553;48.412;9.514;2022-08-20T05:08:26;23.30;69.40
12977;DHT22;6553;48.412;9.514;2022-08-20T05:10:53;23.30;69.40
12977;DHT22;6553;48.412;9.514;2022-08-20T05:13:20;23.30;69.50
12977;DHT22;6553;48.412;9.514;2022-08-20T05:15:46;23.30;69.50
12977;DHT22;6553;48.412;9.514;2022-08-20T05:18:16;23.30;69.50
12977;DHT22;6553;48.412;9.514;2022-08-20T05:20:45;23.30;69.50
12977;DHT22;6553;48.412;9.514;2022-08-20T05:23:13;23.30;69.50
12977;DHT22;6553;48.412;9.514;2022-08-20T05:25:42;23.30;69.50
12977;DHT22;6553;48.412;9.514;2022-08-20T05:28:13;23.30;69.50
12977;DHT22;6553;48.412;9.514;2022-08-20T05:30:44;23.30;69.60
12977;DHT22;6553;48.412;9.514;2022-08-20T05:33:13;23.30;69.60
12977;DHT22;6553;48.412;9.514;2022-08-20T05:35:41;23.30;69.60
12977;DHT22;6553;48.412;9.514;2022-08-20T05:38:11;23.30;69.60
12977;DHT22;6553;48.412;9.514;2022-08-20T05:40:41;23.30;69.70
12977;DHT22;6553;48.412;9.514;2022-08-20T05:43:08;23.30;69.70
12977;DHT22;6553;48.412;9.514;2022-08-20T05:45:35;23.30;69.80
12977;DHT22;6553;48.412;9.514;2022-08-20T05:48:15;23.30;69.80
12977;DHT22;6553;48.412;9.514;2022-08-20T05:50:44;23.30;69.70
12977;DHT22;6553;48.412;9.514;2022-08-20T05:53:12;23.30;69.70
12977;DHT22;6553;48.412;9.514;2022-08-20T05:55:38;23.30;69.70
12977;DHT22;6553;48.412;9.514;2022-08-20T05:58:07;23.30;69.70
12977;DHT22;6553;48.412;9.514;2022-08-20T06:00:38;23.30;69.80
12977;DHT22;6553;48.412;9.514;2022-08-20T06:03:04;23.30;69.80
12977;DHT22;6553;48.412;9.514;2022-08-20T06:05:48;23.30;69.80
12977;DHT22;6553;48.412;9.514;2022-08-20T06:08:15;23.30;69.80
12977;DHT22;6553;48.412;9.514;2022-08-20T06:10:42;23.30;69.90
12977;DHT22;6553;48.412;9.514;2022-08-20T06:13:09;23.30;70.00
12977;DHT22;6553;48.412;9.514;2022-08-20T06:15:35;23.30;70.10
12977;DHT22;6553;48.412;9.514;2022-08-20T06:18:05;23.20;70.10
12977;DHT22;6553;48.412;9.514;2022-08-20T06:20:36;23.30;70.10
12977;DHT22;6553;48.412;9.514;2022-08-20T06:23:03;23.30;70.10
12977;DHT22;6553;48.412;9.514;2022-08-20T06:25:30;23.30;70.10
12977;DHT22;6553;48.412;9.514;2022-08-20T06:27:56;23.30;70.10
12977;DHT22;6553;48.412;9.514;2022-08-20T06:30:22;23.20;70.00
12977;DHT22;6553;48.412;9.514;2022-08-20T06:32:48;23.30;70.10
12977;DHT22;6553;48.412;9.514;2022-08-20T06:35:15;23.30;70.10
12977;DHT22;6553;48.412;9.514;2022-08-20T06:37:41;23.30;70.20
12977;DHT22;6553;48.412;9.514;2022-08-20T06:40:09;23.30;70.10
12977;DHT22;6553;48.412;9.514;2022-08-20T06:42:37;23.30;70.10
12977;DHT22;6553;48.412;9.514;2022-08-20T06:45:09;23.30;70.10
12977;DHT22;6553;48.412;9.514;2022-08-20T06:47:41;23.30;70.00
12977;DHT22;6553;48.412;9.514;2022-08-20T06:50:11;23.30;70.20
12977;DHT22;6553;48.412;9.514;2022-08-20T06:52:40;23.30;70.20
12977;DHT22;6553;48.412;9.514;2022-08-20T06:55:08;23.30;70.30
12977;DHT22;6553;48.412;9.514;2022-08-20T06:57:36;23.30;70.30
12977;DHT22;6553;48.412;9.514;2022-08-20T07:00:09;23.20;70.30
12977;DHT22;6553;48.412;9.514;2022-08-20T07:02:39;23.30;70.40
12977;DHT22;6553;48.412;9.514;2022-08-20T07:05:05;23.20;70.40
12977;DHT22;6553;48.412;9.514;2022-08-20T07:07:32;23.20;70.40
12977;DHT22;6553;48.412;9.514;2022-08-20T07:10:03;23.30;70.50
12977;DHT22;6553;48.412;9.514;2022-08-20T07:12:34;23.30;70.50
12977;DHT22;6553;48.412;9.514;2022-08-20T07:15:03;23.30;70.40
12977;DHT22;6553;48.412;9.514;2022-08-20T07:17:30;23.30;70.40
12977;DHT22;6553;48.412;9.514;2022-08-20T07:19:56;23.30;70.50
12977;DHT22;6553;48.412;9.514;2022-08-20T07:22:22;23.30;70.50
12977;DHT22;6553;48.412;9.514;2022-08-20T07:24:49;23.30;70.50
12977;DHT22;6553;48.412;9.514;2022-08-20T07:27:21;23.30;70.50
12977;DHT22;6553;48.412;9.514;2022-08-20T07:29:48;23.20;70.40
12977;DHT22;6553;48.412;9.514;2022-08-20T07:32:34;23.30;70.50
12977;DHT22;6553;48.412;9.514;2022-08-20T07:35:05;23.30;70.50
12977;DHT22;6553;48.412;9.514;2022-08-20T07:37:44;23.20;70.40
12977;DHT22;6553;48.412;9.514;2022-08-20T07:40:20;23.20;70.40
12977;DHT22;6553;48.412;9.514;2022-08-20T07:42:47;23.30;70.50
12977;DHT22;6553;48.412;9.514;2022-08-20T07:45:15;23.30;70.50
12977;DHT22;6553;48.412;9.514;2022-08-20T07:47:44;23.30;70.50
12977;DHT22;6553;48.412;9.514;2022-08-20T07:50:14;23.30;70.50
12977;DHT22;6553;48.412;9.514;2022-08-20T07:52:45;23.30;70.50
12977;DHT22;6553;48.412;9.514;2022-08-20T07:55:14;23.30;70.70
12977;DHT22;6553;48.412;9.514;2022-08-20T07:57:41;23.30;70.50
12977;DHT22;6553;48.412;9.514;2022-08-20T08:00:10;23.30;70.60
12977;DHT22;6553;48.412;9.514;2022-08-20T08:02:37;23.30;70.50
12977;DHT22;6553;48.412;9.514;2022-08-20T08:05:05;23.30;70.70
12977;DHT22;6553;48.412;9.514;2022-08-20T08:07:32;23.30;70.50
12977;DHT22;6553;48.412;9.514;2022-08-20T08:10:00;23.30;70.70
12977;DHT22;6553;48.412;9.514;2022-08-20T08:12:32;23.40;70.60
12977;DHT22;6553;48.412;9.514;2022-08-20T08:15:02;23.40;70.90
12977;DHT22;6553;48.412;9.514;2022-08-20T08:17:29;23.40;70.60
12977;DHT22;6553;48.412;9.514;2022-08-20T08:19:56;23.40;70.80
12977;DHT22;6553;48.412;9.514;2022-08-20T08:22:23;23.40;70.60
12977;DHT22;6553;48.412;9.514;2022-08-20T08:24:49;23.40;70.60
12977;DHT22;6553;48.412;9.514;2022-08-20T08:27:15;23.40;70.60
12977;DHT22;6553;48.412;9.514;2022-08-20T08:29:44;23.40;70.60
12977;DHT22;6553;48.412;9.514;2022-08-20T08:32:11;23.40;70.60
12977;DHT22;6553;48.412;9.514;2022-08-20T08:34:37;23.40;70.60
12977;DHT22;6553;48.412;9.514;2022-08-20T08:37:04;23.40;70.60
12977;DHT22;6553;48.412;9.514;2022-08-20T08:39:31;23.40;70.60
12977;DHT22;6553;48.412;9.514;2022-08-20T08:41:59;23.40;70.60
12977;DHT22;6553;48.412;9.514;2022-08-20T08:44:33;23.40;70.50
12977;DHT22;6553;48.412;9.514;2022-08-20T08:47:05;23.40;70.60
12977;DHT22;6553;48.412;9.514;2022-08-20T08:49:38;23.50;70.70
12977;DHT22;6553;48.412;9.514;2022-08-20T08:52:09;23.50;70.70
12977;DHT22;6553;48.412;9.514;2022-08-20T08:54:43;23.40;70.60
12977;DHT22;6553;48.412;9.514;2022-08-20T08:57:11;23.40;70.40
12977;DHT22;6553;48.412;9.514;2022-08-20T08:59:37;23.40;70.60
12977;DHT22;6553;48.412;9.514;2022-08-20T09:02:05;23.50;70.70
12977;DHT22;6553;48.412;9.514;2022-08-20T09:04:38;23.40;70.60
12977;DHT22;6553;48.412;9.514;2022-08-20T09:07:08;23.50;70.60
12977;DHT22;6553;48.412;9.514;2022-08-20T09:09:41;23.40;70.60
12977;DHT22;6553;48.412;9.514;2022-08-20T09:12:18;23.40;70.40
12977;DHT22;6553;48.412;9.514;2022-08-20T09:14:47;23.40;70.50
12977;DHT22;6553;48.412;9.514;2022-08-20T09:17:15;23.50;70.70
12977;DHT22;6553;48.412;9.514;2022-08-20T09:19:43;23.50;70.50
12977;DHT22;6553;48.412;9.514;2022-08-20T09:22:15;23.50;70.30
12977;DHT22;6553;48.412;9.514;2022-08-20T09:24:43;23.50;70.30
12977;DHT22;6553;48.412;9.514;2022-08-20T09:27:09;23.50;70.30
12977;DHT22;6553;48.412;9.514;2022-08-20T09:29:36;23.50;70.20
12977;DHT22;6553;48.412;9.514;2022-08-20T09:32:11;23.50;70.70
12977;DHT22;6553;48.412;9.514;2022-08-20T09:34:44;23.60;70.40
12977;DHT22;6553;48.412;9.514;2022-08-20T09:37:12;23.60;70.50
12977;DHT22;6553;48.412;9.514;2022-08-20T09:39:39;23.50;70.30
12977;DHT22;6553;48.412;9.514;2022-08-20T09:42:21;23.50;70.20
12977;DHT22;6553;48.412;9.514;2022-08-20T09:44:53;23.50;70.30
12977;DHT22;6553;48.412;9.514;2022-08-20T09:47:19;23.50;70.40
12977;DHT22;6553;48.412;9.514;2022-08-20T09:49:45;23.50;70.40
12977;DHT22;6553;48.412;9.514;2022-08-20T09:52:35;23.50;70.40
12977;DHT22;6553;48.412;9.514;2022-08-20T09:55:15;23.60;70.40
12977;DHT22;6553;48.412;9.514;2022-08-20T09:57:42;23.50;70.50
12977;DHT22;6553;48.412;9.514;2022-08-20T10:00:08;23.60;70.60
12977;DHT22;6553;48.412;9.514;2022-08-20T10:02:40;23.50;70.20
12977;DHT22;6553;48.412;9.514;2022-08-20T10:05:07;23.50;70.20
12977;DHT22;6553;48.412;9.514;2022-08-20T10:07:34;23.50;70.20
12977;DHT22;6553;48.412;9.514;2022-08-20T10:10:00;23.60;70.20
12977;DHT22;6553;48.412;9.514;2022-08-20T10:12:26;23.60;70.30
12977;DHT22;6553;48.412;9.514;2022-08-20T10:14:52;23.60;70.20
12977;DHT22;6553;48.412;9.514;2022-08-20T10:17:20;23.60;70.20
12977;DHT22;6553;48.412;9.514;2022-08-20T10:19:46;23.60;70.40
12977;DHT22;6553;48.412;9.514;2022-08-20T10:22:12;23.60;70.40
12977;DHT22;6553;48.412;9.514;2022-08-20T10:24:38;23.60;70.40
12977;DHT22;6553;48.412;9.514;2022-08-20T10:27:04;23.60;70.40
12977;DHT22;6553;48.412;9.514;2022-08-20T10:29:30;23.60;70.30
12977;DHT22;6553;48.412;9.514;2022-08-20T10:31:56;23.60;70.30
12977;DHT22;6553;48.412;9.514;2022-08-20T10:34:33;23.60;70.30
12977;DHT22;6553;48.412;9.514;2022-08-20T10:36:59;23.60;70.10
12977;DHT22;6553;48.412;9.514;2022-08-20T10:39:25;23.60;70.10
12977;DHT22;6553;48.412;9.514;2022-08-20T10:41:50;23.60;70.00
12977;DHT22;6553;48.412;9.514;2022-08-20T10:44:16;23.60;70.20
12977;DHT22;6553;48.412;9.514;2022-08-20T10:46:42;23.60;70.30
12977;DHT22;6553;48.412;9.514;2022-08-20T10:49:10;23.60;70.00
12977;DHT22;6553;48.412;9.514;2022-08-20T10:51:36;23.60;70.00
12977;DHT22;6553;48.412;9.514;2022-08-20T10:54:01;23.60;70.30
12977;DHT22;6553;48.412;9.514;2022-08-20T10:56:27;23.70;70.10
12977;DHT22;6553;48.412;9.514;2022-08-20T10:58:53;23.70;70.10
12977;DHT22;6553;48.412;9.514;2022-08-20T11:01:19;23.70;70.10
12977;DHT22;6553;48.412;9.514;2022-08-20T11:03:45;23.70;70.10
12977;DHT22;6553;48.412;9.514;2022-08-20T11:06:10;23.60;70.00
12977;DHT22;6553;48.412;9.514;2022-08-20T11:08:36;23.70;70.10
12977;DHT22;6553;48.412;9.514;2022-08-20T11:11:03;23.70;70.20
12977;DHT22;6553;48.412;9.514;2022-08-20T11:13:30;23.70;70.30
12977;DHT22;6553;48.412;9.514;2022-08-20T11:15:57;23.70;70.00
12977;DHT22;6553;48.412;9.514;2022-08-20T11:18:22;23.70;70.00
12977;DHT22;6553;48.412;9.514;2022-08-20T11:20:48;23.70;70.00
12977;DHT22;6553;48.412;9.514;2022-08-20T11:23:14;23.70;70.00
12977;DHT22;6553;48.412;9.514;2022-08-20T11:25:40;23.70;70.10
12977;DHT22;6553;48.412;9.514;2022-08-20T11:28:06;23.70;70.00
12977;DHT22;6553;48.412;9.514;2022-08-20T11:30:33;23.70;70.10
12977;DHT22;6553;48.412;9.514;2022-08-20T11:33:01;23.70;70.10
12977;DHT22;6553;48.412;9.514;2022-08-20T11:35:28;23.70;70.10
12977;DHT22;6553;48.412;9.514;2022-08-20T11:37:57;23.70;70.10
12977;DHT22;6553;48.412;9.514;2022-08-20T11:40:24;23.70;70.20
12977;DHT22;6553;48.412;9.514;2022-08-20T11:42:51;23.70;70.20
12977;DHT22;6553;48.412;9.514;2022-08-20T11:45:17;23.70;70.20
12977;DHT22;6553;48.412;9.514;2022-08-20T11:47:43;23.70;70.20
12977;DHT22;6553;48.412;9.514;2022-08-20T11:50:15;23.70;70.20
12977;DHT22;6553;48.412;9.514;2022-08-20T11:52:43;23.70;70.30
12977;DHT22;6553;48.412;9.514;2022-08-20T11:55:11;23.70;70.30
12977;DHT22;6553;48.412;9.514;2022-08-20T11:57:41;23.70;70.50
12977;DHT22;6553;48.412;9.514;2022-08-20T12:00:13;23.70;70.40
12977;DHT22;6553;48.412;9.514;2022-08-20T12:02:41;23.70;70.40
12977;DHT22;6553;48.412;9.514;2022-08-20T12:05:09;23.70;70.40
12977;DHT22;6553;48.412;9.514;2022-08-20T12:07:36;23.70;70.30
12977;DHT22;6553;48.412;9.514;2022-08-20T12:10:03;23.70;70.20
12977;DHT22;6553;48.412;9.514;2022-08-20T12:12:31;23.70;70.10
12977;DHT22;6553;48.412;9.514;2022-08-20T12:14:57;23.70;70.10
12977;DHT22;6553;48.412;9.514;2022-08-20T12:17:26;23.70;70.20
12977;DHT22;6553;48.412;9.514;2022-08-20T12:19:56;23.70;70.20
12977;DHT22;6553;48.412;9.514;2022-08-20T12:22:23;23.70;70.10
12977;DHT22;6553;48.412;9.514;2022-08-20T12:24:49;23.70;70.20
12977;DHT22;6553;48.412;9.514;2022-08-20T12:27:23;23.70;69.80
12977;DHT22;6553;48.412;9.514;2022-08-20T12:29:54;23.70;69.90
12977;DHT22;6553;48.412;9.514;2022-08-20T12:32:22;23.70;70.10
12977;DHT22;6553;48.412;9.514;2022-08-20T12:34:50;23.70;70.00
12977;DHT22;6553;48.412;9.514;2022-08-20T12:37:18;23.70;70.10
12977;DHT22;6553;48.412;9.514;2022-08-20T12:39:51;23.70;70.10
12977;DHT22;6553;48.412;9.514;2022-08-20T12:42:19;23.70;70.10
12977;DHT22;6553;48.412;9.514;2022-08-20T12:44:46;23.70;70.10
12977;DHT22;6553;48.412;9.514;2022-08-20T12:47:18;23.70;70.10
12977;DHT22;6553;48.412;9.514;2022-08-20T12:50:04;23.70;70.10
12977;DHT22;6553;48.412;9.514;2022-08-20T12:52:35;23.70;70.10
12977;DHT22;6553;48.412;9.514;2022-08-20T12:55:02;23.80;70.30
12977;DHT22;6553;48.412;9.514;2022-08-20T12:57:36;23.70;70.10
12977;DHT22;6553;48.412;9.514;2022-08-20T13:02:47;23.70;70.30
12977;DHT22;6553;48.412;9.514;2022-08-20T13:05:15;23.80;70.40
12977;DHT22;6553;48.412;9.514;2022-08-20T13:07:42;23.80;70.40
12977;DHT22;6553;48.412;9.514;2022-08-20T13:10:26;23.70;70.40
12977;DHT22;6553;48.412;9.514;2022-08-20T13:12:55;23.70;70.30
12977;DHT22;6553;48.412;9.514;2022-08-20T13:15:22;23.70;70.30
12977;DHT22;6553;48.412;9.514;2022-08-20T13:17:53;23.70;70.30
12977;DHT22;6553;48.412;9.514;2022-08-20T13:20:22;23.70;70.30
12977;DHT22;6553;48.412;9.514;2022-08-20T13:22:53;23.80;70.30
12977;DHT22;6553;48.412;9.514;2022-08-20T13:25:20;23.70;70.20
12977;DHT22;6553;48.412;9.514;2022-08-20T13:27:46;23.70;70.20
12977;DHT22;6553;48.412;9.514;2022-08-20T13:30:16;23.70;70.20
12977;DHT22;6553;48.412;9.514;2022-08-20T13:32:44;23.80;70.30
12977;DHT22;6553;48.412;9.514;2022-08-20T13:35:12;23.70;70.40
12977;DHT22;6553;48.412;9.514;2022-08-20T13:37:39;23.70;70.20
12977;DHT22;6553;48.412;9.514;2022-08-20T13:40:06;23.80;70.20
12977;DHT22;6553;48.412;9.514;2022-08-20T13:42:33;23.70;70.20
12977;DHT22;6553;48.412;9.514;2022-08-20T13:45:00;23.70;70.20
12977;DHT22;6553;48.412;9.514;2022-08-20T13:47:32;23.80;70.20
12977;DHT22;6553;48.412;9.514;2022-08-20T13:50:07;23.70;70.10
12977;DHT22;6553;48.412;9.514;2022-08-20T13:52:36;23.70;70.20
12977;DHT22;6553;48.412;9.514;2022-08-20T13:55:05;23.70;70.00
12977;DHT22;6553;48.412;9.514;2022-08-20T13:57:34;23.80;70.20
12977;DHT22;6553;48.412;9.514;2022-08-20T14:00:02;23.70;70.10
12977;DHT22;6553;48.412;9.514;2022-08-20T14:02:31;23.80;70.30
12977;DHT22;6553;48.412;9.514;2022-08-20T14:04:57;23.70;70.00
12977;DHT22;6553;48.412;9.514;2022-08-20T14:07:27;23.70;70.10
12977;DHT22;6553;48.412;9.514;2022-08-20T14:09:59;23.70;70.10
12977;DHT22;6553;48.412;9.514;2022-08-20T14:12:33;23.70;70.20
12977;DHT22;6553;48.412;9.514;2022-08-20T14:14:59;23.70;70.10
12977;DHT22;6553;48.412;9.514;2022-08-20T14:17:27;23.70;70.30
12977;DHT22;6553;48.412;9.514;2022-08-20T14:19:57;23.70;70.20
12977;DHT22;6553;48.412;9.514;2022-08-20T14:22:26;23.70;70.10
12977;DHT22;6553;48.412;9.514;2022-08-20T14:24:52;23.80;70.30
12977;DHT22;6553;48.412;9.514;2022-08-20T14:27:20;23.80;70.20
12977;DHT22;6553;48.412;9.514;2022-08-20T14:29:48;23.80;70.30
12977;DHT22;6553;48.412;9.514;2022-08-20T14:32:15;23.80;70.30
12977;DHT22;6553;48.412;9.514;2022-08-20T14:34:42;23.70;70.20
12977;DHT22;6553;48.412;9.514;2022-08-20T14:37:13;23.70;70.20
12977;DHT22;6553;48.412;9.514;2022-08-20T14:39:43;23.80;70.20
12977;DHT22;6553;48.412;9.514;2022-08-20T14:42:11;23.80;70.20
12977;DHT22;6553;48.412;9.514;2022-08-20T14:44:38;23.80;70.30
12977;DHT22;6553;48.412;9.514;2022-08-20T14:47:15;23.80;70.20
12977;DHT22;6553;48.412;9.514;2022-08-20T14:49:42;23.80;70.30
12977;DHT22;6553;48.412;9.514;2022-08-20T14:52:10;23.80;70.20
12977;DHT22;6553;48.412;9.514;2022-08-20T14:54:36;23.80;70.10
12977;DHT22;6553;48.412;9.514;2022-08-20T14:57:03;23.80;70.20
12977;DHT22;6553;48.412;9.514;2022-08-20T14:59:29;23.80;69.90
12977;DHT22;6553;48.412;9.514;2022-08-20T15:01:55;23.80;70.20
12977;DHT22;6553;48.412;9.514;2022-08-20T15:04:21;23.80;70.10
12977;DHT22;6553;48.412;9.514;2022-08-20T15:06:47;23.80;70.10
12977;DHT22;6553;48.412;9.514;2022-08-20T15:09:13;23.80;70.20
12977;DHT22;6553;48.412;9.514;2022-08-20T15:11:39;23.80;70.20
12977;DHT22;6553;48.412;9.514;2022-08-20T15:14:08;23.80;70.40
12977;DHT22;6553;48.412;9.514;2022-08-20T15:16:35;23.80;70.40
12977;DHT22;6553;48.412;9.514;2022-08-20T15:19:01;23.80;70.40
12977;DHT22;6553;48.412;9.514;2022-08-20T15:21:28;23.70;70.30
12977;DHT22;6553;48.412;9.514;2022-08-20T15:23:54;23.80;70.40
12977;DHT22;6553;48.412;9.514;2022-08-20T15:26:20;23.80;70.60
12977;DHT22;6553;48.412;9.514;2022-08-20T15:28:46;23.80;70.50
12977;DHT22;6553;48.412;9.514;2022-08-20T15:31:12;23.80;70.50
12977;DHT22;6553;48.412;9.514;2022-08-20T15:33:40;23.70;70.50
12977;DHT22;6553;48.412;9.514;2022-08-20T15:36:08;23.70;70.50
12977;DHT22;6553;48.412;9.514;2022-08-20T15:38:35;23.80;70.50
12977;DHT22;6553;48.412;9.514;2022-08-20T15:41:02;23.80;70.70
12977;DHT22;6553;48.412;9.514;2022-08-20T15:43:30;23.80;70.70
12977;DHT22;6553;48.412;9.514;2022-08-20T15:45:58;23.80;70.60
12977;DHT22;6553;48.412;9.514;2022-08-20T15:48:34;23.80;70.70
12977;DHT22;6553;48.412;9.514;2022-08-20T15:51:22;23.80;70.70
12977;DHT22;6553;48.412;9.514;2022-08-20T15:56:50;23.80;70.80
12977;DHT22;6553;48.412;9.514;2022-08-20T15:59:50;23.70;70.80
12977;DHT22;6553;48.412;9.514;2022-08-20T16:02:49;23.80;70.90
12977;DHT22;6553;48.412;9.514;2022-08-20T16:05:48;23.80;70.80
12977;DHT22;6553;48.412;9.514;2022-08-20T16:14:26;23.70;70.70